Time;durP1;ratioP1;P1;durP2;ratioP2;P2;SDS_P1;SDS_P2;PMS_P1;PMS_P2;Temp;Humidity;BMP_temperature;BMP_pressure;BME280_temperature;BME280_humidity;BME280_pressure;Samples;Min_cycle;Max_cycle;Signal;HPM_P1;HPM_P2
2022/01/08 00:01:51;;;;;;;144.75;53.38;;;5.30;92.10;;;;;;4976005;28;20065;-92
2022/01/08 00:04:17;;;;;;;141.60;52.35;;;5.30;92.60;;;;;;4975904;28;20031;-91
2022/01/08 00:06:46;;;;;;;130.10;49.38;;;5.30;92.40;;;;;;4975761;28;20169;-91
2022/01/08 00:09:17;;;;;;;140.70;50.25;;;5.30;92.40;;;;;;4975890;28;20027;-91
2022/01/08 00:11:43;;;;;;;126.50;46.17;;;5.30;92.80;;;;;;4976347;28;20556;-92
2022/01/08 00:14:10;;;;;;;138.05;49.63;;;5.20;92.10;;;;;;4976171;28;20034;-91
2022/01/08 00:16:45;;;;;;;179.65;58.47;;;5.20;92.20;;;;;;4979493;28;20027;-91
2022/01/08 00:19:11;;;;;;;164.13;53.45;;;5.10;92.60;;;;;;4980014;28;20470;-91
2022/01/08 00:21:40;;;;;;;174.68;58.17;;;5.10;93.30;;;;;;4979738;28;20026;-92
2022/01/08 00:24:06;;;;;;;317.30;100.28;;;5.20;92.70;;;;;;4979732;28;20051;-91
2022/01/08 00:26:47;;;;;;;316.67;97.45;;;5.20;93.10;;;;;;4979389;28;20054;-91
2022/01/08 00:29:13;;;;;;;265.35;85.20;;;5.20;92.90;;;;;;4979250;28;20403;-92
2022/01/08 00:31:40;;;;;;;224.45;78.30;;;5.10;92.80;;;;;;4978669;28;20096;-91
2022/01/08 00:34:06;;;;;;;167.05;57.83;;;5.10;93.20;;;;;;4979606;28;20031;-91
2022/01/08 00:36:51;;;;;;;119.82;44.47;;;5.00;93.00;;;;;;4978204;28;20027;-91
2022/01/08 00:39:17;;;;;;;106.18;38.47;;;5.00;93.00;;;;;;4979813;28;20058;-92
2022/01/08 00:41:42;;;;;;;93.03;36.33;;;5.10;92.90;;;;;;4977716;28;20023;-91
2022/01/08 00:44:08;;;;;;;88.88;33.10;;;5.10;92.60;;;;;;4979756;28;20482;-92
2022/01/08 00:46:37;;;;;;;81.40;31.70;;;5.20;92.70;;;;;;4979961;28;20019;-92
2022/01/08 00:49:03;;;;;;;75.13;30.10;;;5.20;92.50;;;;;;4979036;28;20023;-91
2022/01/08 00:51:37;;;;;;;70.47;27.83;;;5.20;92.60;;;;;;4978884;28;20505;-91
2022/01/08 00:54:02;;;;;;;62.15;26.70;;;5.20;92.60;;;;;;4978765;28;20042;-91
2022/01/08 00:56:30;;;;;;;66.80;28.10;;;5.20;92.30;;;;;;4978776;28;20030;-92
2022/01/08 00:58:56;;;;;;;76.63;30.88;;;5.20;91.80;;;;;;4979201;28;20034;-91
2022/01/08 01:01:33;;;;;;;70.57;29.88;;;5.00;91.70;;;;;;4978543;28;20035;-91
2022/01/08 01:03:58;;;;;;;81.68;31.65;;;4.90;92.30;;;;;;4978371;28;20066;-92
2022/01/08 01:06:24;;;;;;;84.82;34.15;;;4.80;92.10;;;;;;4978801;28;20038;-92
2022/01/08 01:08:50;;;;;;;84.97;32.92;;;4.70;92.90;;;;;;4978906;28;20031;-91
2022/01/08 01:11:16;;;;;;;82.38;32.88;;;4.80;93.20;;;;;;4978261;28;20039;-91
2022/01/08 01:13:42;;;;;;;102.80;40.03;;;4.70;93.20;;;;;;4978738;28;20039;-91
2022/01/08 01:16:08;;;;;;;100.85;38.20;;;4.60;93.30;;;;;;4978049;28;20034;-91
2022/01/08 01:18:39;;;;;;;92.07;35.72;;;4.60;93.20;;;;;;4977204;28;20046;-92
2022/01/08 01:21:05;;;;;;;92.60;37.17;;;4.60;93.60;;;;;;4976800;28;20027;-92
2022/01/08 01:23:41;;;;;;;103.50;40.20;;;4.70;93.60;;;;;;4978057;28;20117;-91
2022/01/08 01:26:13;;;;;;;105.72;43.25;;;4.70;93.50;;;;;;4978685;28;20022;-91
2022/01/08 01:28:58;;;;;;;90.43;38.67;;;4.80;93.80;;;;;;4984447;28;20069;-92
2022/01/08 01:42:51;;;;;;;82.50;34.88;;;5.00;93.90;;;;;;5017615;28;20041;-92
2022/01/08 01:47:55;;;;;;;89.95;36.92;;;5.10;93.60;;;;;;5018088;28;20084;-92
2022/01/08 01:50:21;;;;;;;104.28;41.78;;;5.00;93.70;;;;;;5000847;28;20026;-92
2022/01/08 01:52:47;;;;;;;88.70;36.72;;;5.10;93.70;;;;;;5000692;28;20373;-91
2022/01/08 01:55:13;;;;;;;103.53;42.33;;;5.10;93.80;;;;;;4999244;28;20018;-92
2022/01/08 01:57:39;;;;;;;101.47;39.35;;;5.10;92.80;;;;;;5000339;28;20034;-91
2022/01/08 02:00:07;;;;;;;105.80;41.70;;;5.00;93.20;;;;;;4999929;28;20021;-92
2022/01/08 02:02:41;;;;;;;101.25;40.50;;;5.00;93.60;;;;;;5000378;28;20045;-91
2022/01/08 02:05:08;;;;;;;91.97;38.60;;;5.00;93.60;;;;;;5000486;28;20030;-91
2022/01/08 08:06:13;;;;;;;57.90;26.90;;;1.80;99.90;;;;;;5134845;27;20410;-92
2022/01/08 08:08:39;;;;;;;66.65;28.20;;;1.80;99.90;;;;;;5116645;28;20122;-93
2022/01/08 08:11:05;;;;;;;65.45;29.35;;;1.90;99.90;;;;;;5116880;27;20007;-92
2022/01/08 08:13:32;;;;;;;77.38;29.50;;;2.10;99.90;;;;;;5116499;28;20046;-93
2022/01/08 08:16:00;;;;;;;76.15;31.23;;;2.30;99.90;;;;;;5115041;28;20019;-93
2022/01/08 08:18:26;;;;;;;61.45;29.27;;;2.50;99.90;;;;;;5116640;28;20023;-93
2022/01/08 08:20:52;;;;;;;76.63;28.88;;;2.70;99.90;;;;;;5116193;28;20031;-92
2022/01/08 08:23:18;;;;;;;70.75;29.73;;;2.90;99.90;;;;;;5116389;28;20072;-92
2022/01/08 08:25:44;;;;;;;69.85;29.65;;;3.00;99.90;;;;;;5115932;28;20545;-92
2022/01/08 08:28:10;;;;;;;64.00;29.75;;;3.00;99.90;;;;;;5116016;28;20027;-93
2022/01/08 08:30:36;;;;;;;69.63;30.17;;;3.00;99.90;;;;;;5116832;28;20110;-93
2022/01/08 08:33:03;;;;;;;65.20;29.02;;;3.00;99.90;;;;;;5115454;28;20038;-92
2022/01/08 08:35:29;;;;;;;57.50;28.23;;;3.10;99.90;;;;;;5115892;28;20076;-92
2022/01/08 08:37:56;;;;;;;60.03;28.98;;;3.10;99.90;;;;;;5116388;28;20031;-92
2022/01/08 08:40:22;;;;;;;67.55;29.13;;;3.10;99.90;;;;;;5116303;28;20031;-93
2022/01/08 08:42:48;;;;;;;65.35;28.70;;;3.10;99.90;;;;;;5115530;28;20019;-93
2022/01/08 08:45:14;;;;;;;66.78;27.83;;;3.10;99.90;;;;;;5115654;28;20007;-92
